createdAt,value
2022-10-23T00:01:56.175Z,241.65
2022-10-23T00:04:26.566Z,240.20
2022-10-23T00:06:55.896Z,238.80
2022-10-23T00:09:26.217Z,237.02
2022-10-23T00:11:55.620Z,234.35
2022-10-23T00:14:26.057Z,232.20
2022-10-23T00:16:55.395Z,232.20
2022-10-23T00:19:24.799Z,230.45
2022-10-23T00:21:54.194Z,228.88
2022-10-23T00:24:23.441Z,226.50
2022-10-23T00:26:53.075Z,219.53
2022-10-23T00:29:22.735Z,215.60
2022-10-23T00:31:52.052Z,218.12
2022-10-23T00:34:21.313Z,216.97
2022-10-23T00:36:50.775Z,214.27
2022-10-23T00:39:20.019Z,212.27
2022-10-23T00:41:49.415Z,210.17
2022-10-23T00:44:27.792Z,209.77
2022-10-23T00:46:58.200Z,202.80
2022-10-23T00:49:28.625Z,200.68
2022-10-23T00:52:00.864Z,198.50
2022-10-23T00:54:40.486Z,199.72
2022-10-23T00:57:15.123Z,194.17
2022-10-23T00:59:44.868Z,194.25
2022-10-23T01:02:15.323Z,197.78
2022-10-23T01:04:44.688Z,192.68
2022-10-23T01:07:19.936Z,186.73
2022-10-23T01:09:58.568Z,181.82
2022-10-23T01:12:33.616Z,184.40
2022-10-23T01:15:16.609Z,182.07
2022-10-23T01:18:06.796Z,180.75
2022-10-23T01:20:45.893Z,176.30
2022-10-23T01:23:41.331Z,177.68
2022-10-23T01:26:16.671Z,172.82
2022-10-23T01:29:04.447Z,169.70
2022-10-23T01:31:40.302Z,167.82
2022-10-23T01:34:19.073Z,167.45
2022-10-23T01:36:50.327Z,160.40
2022-10-23T01:39:35.059Z,161.20
2022-10-23T01:42:12.853Z,158.97
2022-10-23T01:44:57.083Z,158.35
2022-10-23T01:47:28.501Z,153.70
2022-10-23T01:50:00.315Z,157.12
2022-10-23T01:52:30.212Z,150.20
2022-10-23T01:55:01.779Z,144.90
2022-10-23T01:57:34.303Z,145.87
2022-10-23T02:00:06.938Z,142.65
2022-10-23T02:02:39.531Z,144.82
2022-10-23T02:05:26.580Z,136.40
2022-10-23T02:07:57.060Z,137.15
2022-10-23T02:10:32.472Z,139.57
2022-10-23T02:13:10.641Z,135.15
2022-10-23T02:15:52.179Z,134.30
2022-10-23T02:18:40.151Z,131.70
2022-10-23T02:21:15.183Z,130.78
2022-10-23T02:23:49.535Z,126.55
2022-10-23T02:26:21.740Z,122.98
2022-10-23T02:28:55.144Z,127.25
2022-10-23T02:33:55.062Z,120.82
2022-10-23T02:36:24.358Z,118.62
2022-10-23T02:38:54.163Z,121.33
2022-10-23T02:41:26.739Z,116.60
2022-10-23T02:44:03.707Z,115.92
2022-10-23T02:46:52.232Z,113.65
2022-10-23T02:49:34.208Z,109.75
2022-10-23T02:52:22.695Z,105.47
2022-10-23T02:54:57.916Z,107.58
2022-10-23T02:57:30.303Z,104.85
2022-10-23T03:00:12.058Z,105.22
2022-10-23T03:02:44.404Z,103.38
2022-10-23T03:05:21.091Z,99.55
2022-10-23T03:07:50.531Z,99.20
2022-10-23T03:10:19.986Z,100.45
2022-10-23T03:12:49.423Z,98.22
2022-10-23T03:15:20.228Z,97.15
2022-10-23T03:17:50.650Z,98.20
2022-10-23T03:20:20.043Z,94.13
2022-10-23T03:22:49.332Z,93.58
2022-10-23T03:25:18.846Z,89.90
2022-10-23T03:27:48.221Z,89.85
2022-10-23T03:30:17.986Z,90.53
2022-10-23T03:32:48.987Z,89.40
2022-10-23T03:35:18.277Z,85.67
2022-10-23T03:37:47.903Z,85.65
2022-10-23T03:40:17.950Z,81.10
2022-10-23T03:42:47.258Z,83.12
2022-10-23T03:45:18.313Z,81.90
2022-10-23T03:47:51.264Z,81.60
2022-10-23T03:50:21.114Z,77.80
2022-10-23T03:52:50.874Z,80.60
2022-10-23T03:55:20.084Z,77.30
2022-10-23T03:57:49.558Z,74.17
2022-10-23T04:00:21.020Z,76.15
2022-10-23T04:02:50.341Z,72.87
2022-10-23T04:05:19.622Z,74.90
2022-10-23T04:07:50.578Z,72.35
2022-10-23T04:10:19.847Z,68.97
2022-10-23T04:12:49.091Z,70.42
2022-10-23T04:15:18.445Z,70.65
2022-10-23T04:17:48.396Z,68.37
2022-10-23T04:20:17.842Z,66.82
2022-10-23T04:22:47.203Z,65.85
2022-10-23T04:25:16.659Z,61.95
2022-10-23T04:27:46.540Z,63.48
2022-10-23T04:30:16.067Z,62.80
2022-10-23T04:32:47.045Z,63.17
2022-10-23T04:35:17.265Z,61.45
2022-10-23T04:37:49.449Z,62.60
2022-10-23T04:40:18.659Z,59.13
2022-10-23T04:42:48.019Z,57.20
2022-10-23T04:45:17.395Z,57.35
2022-10-23T04:47:46.758Z,55.05
2022-10-23T04:50:16.420Z,57.27
2022-10-23T04:53:03.711Z,55.88
2022-10-23T04:55:52.897Z,53.50
2022-10-23T04:58:27.555Z,53.23
2022-10-23T05:00:58.951Z,53.15
2022-10-23T05:03:28.533Z,51.95
2022-10-23T05:05:57.941Z,51.25
2022-10-23T05:08:29.304Z,52.45
2022-10-23T05:11:03.296Z,49.95
2022-10-23T05:13:34.238Z,48.78
2022-10-23T05:16:03.585Z,47.48
2022-10-23T05:18:36.014Z,48.15
2022-10-23T05:21:11.163Z,47.00
2022-10-23T05:23:43.311Z,48.65
2022-10-23T05:26:14.408Z,47.75
2022-10-23T05:28:45.520Z,46.18
2022-10-23T05:31:16.904Z,44.10
2022-10-23T05:33:47.848Z,46.10
2022-10-23T05:36:18.232Z,41.68
2022-10-23T05:38:47.971Z,43.17
2022-10-23T05:41:19.076Z,43.38
2022-10-23T05:43:49.642Z,41.35
2022-10-23T05:46:38.380Z,40.30
2022-10-23T05:49:15.762Z,40.05
2022-10-23T05:51:53.130Z,39.42
2022-10-23T05:54:40.716Z,38.42
2022-10-23T05:59:48.994Z,38.10
2022-10-23T06:02:29.135Z,36.13
2022-10-23T06:05:00.254Z,36.60
2022-10-23T06:07:46.660Z,38.65
2022-10-23T06:10:16.327Z,36.17
2022-10-23T06:12:47.130Z,35.73
2022-10-23T06:15:18.352Z,35.50
2022-10-23T06:18:06.820Z,34.85
2022-10-23T06:20:38.921Z,34.38
2022-10-23T06:23:09.850Z,35.38
2022-10-23T06:25:57.108Z,34.08
2022-10-23T06:28:31.328Z,33.28
2022-10-23T06:31:00.768Z,32.48
2022-10-23T06:33:29.999Z,31.82
2022-10-23T06:35:59.387Z,32.28
2022-10-23T06:38:29.571Z,32.05
2022-10-23T06:40:59.048Z,30.02
2022-10-23T06:43:30.478Z,31.10
2022-10-23T06:46:05.244Z,31.57
2022-10-23T06:48:36.339Z,29.90
2022-10-23T06:51:09.299Z,28.95
2022-10-23T06:53:40.991Z,30.10
2022-10-23T06:56:12.784Z,28.27
2022-10-23T06:58:42.469Z,27.95
2022-10-23T07:01:19.966Z,28.32
2022-10-23T07:03:50.075Z,27.87
2022-10-23T07:06:21.190Z,27.70
2022-10-23T07:08:50.901Z,27.77
2022-10-23T07:11:21.923Z,27.73
2022-10-23T07:13:51.202Z,26.30
2022-10-23T07:16:23.635Z,26.75
2022-10-23T07:19:01.826Z,26.30
2022-10-23T07:21:35.156Z,25.10
2022-10-23T07:24:11.811Z,25.27
2022-10-23T07:26:41.797Z,24.98
2022-10-23T07:29:12.377Z,24.77
2022-10-23T07:31:41.852Z,24.52
2022-10-23T07:34:29.379Z,23.47
2022-10-23T07:37:03.346Z,24.05
2022-10-23T07:39:32.658Z,22.62
2022-10-23T07:42:02.268Z,23.18
2022-10-23T07:44:31.553Z,23.25
2022-10-23T07:47:01.338Z,22.27
2022-10-23T07:49:30.638Z,22.67
2022-10-23T07:52:00.580Z,22.65
2022-10-23T07:54:31.607Z,22.58
2022-10-23T07:57:12.876Z,21.23
2022-10-23T07:59:43.816Z,22.25
2022-10-23T08:02:15.272Z,21.52
2022-10-23T08:04:44.877Z,21.07
2022-10-23T08:07:18.687Z,22.02
2022-10-23T08:09:49.296Z,22.05
2022-10-23T08:12:18.768Z,22.85
2022-10-23T08:14:48.055Z,22.05
2022-10-23T08:17:17.729Z,24.07
2022-10-23T08:20:03.902Z,24.12
2022-10-23T08:22:37.255Z,23.45
2022-10-23T08:25:07.459Z,23.57
2022-10-23T08:27:38.882Z,24.20
2022-10-23T08:30:08.925Z,25.60
2022-10-23T08:32:38.421Z,25.00
2022-10-23T08:35:08.400Z,23.92
2022-10-23T08:37:38.242Z,27.58
2022-10-23T08:40:10.811Z,29.10
2022-10-23T08:42:47.582Z,28.47
2022-10-23T08:45:39.217Z,34.88
2022-10-23T08:48:27.936Z,41.20
2022-10-23T08:51:43.833Z,46.68
2022-10-23T08:54:19.209Z,52.00
2022-10-23T08:56:54.237Z,53.78
2022-10-23T08:59:31.536Z,57.45
2022-10-23T09:02:06.663Z,59.90
2022-10-23T09:04:36.736Z,64.07
2022-10-23T09:07:24.396Z,64.77
2022-10-23T09:10:02.710Z,67.80
2022-10-23T09:12:32.625Z,68.60
2022-10-23T09:15:24.679Z,71.50
2022-10-23T09:18:03.810Z,75.83
2022-10-23T09:20:35.127Z,75.65
2022-10-23T09:23:10.426Z,79.97
2022-10-23T09:25:41.492Z,81.45
2022-10-23T09:28:28.323Z,78.37
2022-10-23T09:31:12.058Z,77.90
2022-10-23T09:33:41.436Z,76.30
2022-10-23T09:36:16.837Z,82.15
2022-10-23T09:38:50.866Z,79.45
2022-10-23T09:41:29.267Z,81.70
2022-10-23T09:44:04.694Z,79.60
2022-10-23T09:46:45.334Z,79.97
2022-10-23T09:49:20.489Z,80.17
2022-10-23T09:51:58.945Z,81.40
2022-10-23T09:54:29.944Z,82.42
2022-10-23T09:57:02.351Z,80.03
2022-10-23T09:59:32.820Z,78.57
2022-10-23T10:02:05.931Z,79.58
2022-10-23T10:04:49.326Z,84.75
2022-10-23T10:07:24.423Z,83.72
2022-10-23T10:09:58.001Z,82.20
2022-10-23T10:12:42.083Z,82.55
2022-10-23T10:15:20.282Z,85.65
2022-10-23T10:17:58.558Z,86.02
2022-10-23T10:20:48.733Z,90.15
2022-10-23T10:23:43.590Z,88.92
2022-10-23T10:26:18.936Z,94.15
2022-10-23T10:29:00.230Z,93.82
2022-10-23T10:31:38.458Z,98.70
2022-10-23T10:34:14.303Z,96.82
2022-10-23T10:36:55.767Z,98.42
2022-10-23T10:39:39.918Z,98.92
2022-10-23T10:42:43.601Z,105.87
2022-10-23T10:45:33.003Z,111.37
2022-10-23T10:48:20.264Z,116.77
2022-10-23T10:51:14.852Z,122.10
2022-10-23T10:54:21.084Z,130.65
2022-10-23T10:56:50.708Z,140.50
2022-10-23T10:59:24.794Z,146.60
2022-10-23T11:02:00.999Z,157.57
2022-10-23T11:04:51.199Z,156.55
2022-10-23T11:07:25.293Z,172.60
2022-10-23T11:09:55.084Z,180.65
2022-10-23T11:12:27.545Z,180.42
2022-10-23T11:14:57.168Z,186.90
2022-10-23T11:17:38.386Z,187.95
2022-10-23T11:20:26.988Z,185.43
2022-10-23T11:23:11.663Z,192.32
2022-10-23T11:25:53.514Z,191.85
2022-10-23T11:28:46.957Z,189.18
2022-10-23T11:31:31.890Z,187.88
2022-10-23T11:34:23.308Z,186.20
2022-10-23T11:36:57.873Z,180.65
2022-10-23T11:39:32.503Z,184.93
2022-10-23T11:42:09.568Z,181.90
2022-10-23T11:44:49.495Z,184.85
2022-10-23T11:47:40.036Z,181.30
2022-10-23T11:50:12.333Z,170.10
2022-10-23T12:10:37.196Z,6.30
2022-10-23T12:13:09.837Z,7.37
2022-10-23T12:15:39.096Z,5.55
2022-10-23T12:18:18.391Z,8.50
2022-10-23T12:20:55.918Z,5.25
2022-10-23T12:23:31.146Z,8.38
2022-10-23T12:26:09.236Z,6.85
2022-10-23T12:28:44.713Z,6.22
2022-10-23T12:31:37.718Z,7.85
2022-10-23T12:34:12.913Z,6.55
2022-10-23T12:36:53.979Z,8.15
2022-10-23T12:39:28.124Z,8.95
2022-10-23T12:41:57.634Z,9.95
2022-10-23T12:44:27.904Z,5.53
2022-10-23T12:47:00.515Z,10.23
2022-10-23T12:49:35.663Z,8.70
2022-10-23T12:52:07.427Z,7.92
2022-10-23T12:54:39.784Z,10.73
2022-10-23T12:57:30.195Z,9.35
2022-10-23T13:00:06.263Z,8.00
2022-10-23T13:02:35.835Z,8.95
2022-10-23T13:05:07.330Z,9.85
2022-10-23T13:07:38.721Z,8.30
2022-10-23T13:10:08.704Z,7.72
2022-10-23T13:12:40.747Z,8.65
2022-10-23T13:15:14.097Z,7.55
2022-10-23T13:17:49.415Z,9.43
2022-10-23T13:20:27.183Z,8.88
2022-10-23T13:23:22.238Z,8.48
2022-10-23T13:26:01.936Z,8.88
2022-10-23T13:28:43.112Z,8.80
2022-10-23T13:31:16.018Z,9.80
2022-10-23T13:33:53.149Z,7.65
2022-10-23T13:36:27.446Z,7.65
2022-10-23T13:39:06.116Z,6.17
2022-10-23T13:41:43.543Z,9.10
2022-10-23T13:44:14.912Z,8.68
2022-10-23T13:46:44.458Z,7.92
2022-10-23T13:49:13.771Z,8.80
2022-10-23T13:51:47.619Z,9.60
2022-10-23T13:54:20.205Z,11.90
2022-10-23T13:59:18.574Z,13.00
2022-10-23T14:01:50.105Z,14.07
2022-10-23T14:04:20.803Z,9.97
2022-10-23T14:06:50.099Z,7.62
2022-10-23T14:09:19.752Z,9.73
2022-10-23T14:11:48.963Z,11.75
2022-10-23T14:14:18.275Z,9.90
2022-10-23T14:16:47.479Z,7.03
2022-10-23T14:19:16.848Z,7.78
2022-10-23T14:21:46.036Z,7.35
2022-10-23T14:24:15.381Z,8.45
2022-10-23T14:26:44.748Z,12.80
2022-10-23T14:29:21.386Z,11.83
2022-10-23T14:31:45.023Z,11.73
2022-10-23T14:34:14.296Z,12.03
2022-10-23T14:36:50.092Z,15.38
2022-10-23T14:39:14.525Z,15.63
2022-10-23T14:41:43.785Z,10.35
2022-10-23T14:44:13.048Z,8.90
2022-10-23T14:46:42.450Z,9.38
2022-10-23T14:49:11.933Z,8.95
2022-10-23T14:51:41.199Z,10.30
2022-10-23T14:54:10.610Z,9.03
2022-10-23T14:56:41.133Z,9.60
2022-10-23T14:59:11.846Z,7.78
2022-10-23T15:01:45.658Z,11.50
2022-10-23T15:04:14.806Z,9.18
2022-10-23T15:06:45.156Z,7.78
2022-10-23T15:09:15.395Z,11.85
2022-10-23T15:11:44.748Z,9.10
2022-10-23T15:14:14.398Z,9.28
2022-10-23T15:16:43.620Z,7.78
2022-10-23T15:19:18.178Z,7.90
2022-10-23T15:21:45.308Z,11.03
2022-10-23T15:24:15.126Z,6.53
2022-10-23T15:26:44.581Z,9.40
2022-10-23T15:29:14.928Z,8.55
2022-10-23T15:31:48.010Z,11.12
2022-10-23T15:34:22.550Z,8.90
2022-10-23T15:36:52.317Z,6.92
2022-10-23T15:39:24.206Z,8.73
2022-10-23T15:41:56.871Z,12.15
2022-10-23T15:46:57.275Z,12.15
2022-10-23T15:49:29.219Z,6.85
2022-10-23T15:51:58.818Z,10.10
2022-10-23T15:54:30.660Z,11.15
2022-10-23T15:56:59.323Z,7.05
2022-10-23T15:59:29.935Z,8.68
2022-10-23T16:01:59.685Z,10.43
2022-10-23T16:04:29.210Z,10.08
2022-10-23T16:06:58.501Z,8.88
2022-10-23T16:09:27.895Z,11.08
2022-10-23T16:11:57.134Z,9.53
2022-10-23T16:14:26.451Z,8.80
2022-10-23T16:16:55.698Z,6.78
2022-10-23T16:19:25.341Z,10.08
2022-10-23T16:21:54.724Z,7.10
2022-10-23T16:24:24.062Z,7.40
2022-10-23T16:26:54.934Z,6.55
2022-10-23T16:29:25.586Z,13.40
2022-10-23T16:31:55.960Z,7.95
2022-10-23T16:34:25.178Z,11.90
2022-10-23T16:36:54.849Z,9.93
2022-10-23T16:39:30.351Z,10.78
2022-10-23T16:45:05.872Z,10.15
2022-10-23T16:47:35.573Z,10.18
2022-10-23T16:50:05.332Z,11.57
2022-10-23T16:52:34.600Z,8.78
2022-10-23T16:55:03.869Z,8.70
2022-10-23T16:57:33.698Z,11.80
2022-10-23T17:00:03.058Z,11.60
2022-10-23T17:02:32.807Z,14.63
2022-10-23T17:05:02.219Z,11.90
2022-10-23T17:07:32.827Z,11.35
2022-10-23T17:10:02.034Z,13.18
2022-10-23T17:12:32.200Z,12.00
2022-10-23T17:15:01.709Z,12.80
2022-10-23T17:17:30.965Z,12.33
2022-10-23T17:20:00.379Z,21.12
2022-10-23T17:22:29.597Z,11.57
2022-10-23T17:25:00.099Z,12.45
2022-10-23T17:27:29.305Z,11.12
2022-10-23T17:29:59.001Z,13.20
2022-10-23T17:32:28.220Z,12.73
2022-10-23T17:34:57.459Z,12.13
2022-10-23T17:37:26.742Z,11.25
2022-10-23T17:39:58.911Z,10.55
2022-10-23T17:42:27.005Z,10.82
2022-10-23T17:44:56.568Z,10.15
2022-10-23T17:47:26.072Z,13.22
2022-10-23T17:49:55.318Z,12.50
2022-10-23T17:52:24.596Z,11.60
2022-10-23T17:54:53.899Z,13.90
2022-10-23T17:59:52.711Z,11.22
2022-10-23T18:02:22.130Z,14.28
2022-10-23T18:04:51.488Z,11.70
2022-10-23T18:07:20.695Z,11.95
2022-10-23T18:09:50.159Z,13.62
2022-10-23T18:12:19.397Z,12.73
2022-10-23T18:14:48.729Z,15.05
2022-10-23T18:17:18.086Z,9.38
2022-10-23T18:19:50.467Z,9.90
2022-10-23T18:22:20.019Z,11.43
2022-10-23T18:27:51.986Z,11.25
2022-10-23T18:30:21.301Z,7.35
2022-10-23T18:32:50.587Z,13.70
2022-10-23T18:35:20.637Z,10.13
2022-10-23T18:37:50.141Z,12.28
2022-10-23T18:40:20.542Z,9.90
2022-10-23T18:42:50.638Z,8.98
2022-10-23T18:45:20.174Z,8.00
2022-10-23T18:47:49.641Z,7.85
2022-10-23T18:50:19.425Z,7.28
2022-10-23T18:52:48.659Z,7.53
2022-10-23T18:55:18.393Z,17.05
2022-10-23T18:57:48.025Z,7.95
2022-10-23T19:00:17.619Z,6.10
2022-10-23T19:02:52.126Z,9.50
2022-10-23T19:05:18.772Z,10.45
2022-10-23T19:07:49.279Z,10.90
2022-10-23T19:10:20.545Z,6.75
2022-10-23T19:12:50.133Z,7.10
2022-10-23T19:15:19.551Z,8.95
2022-10-23T19:17:55.339Z,7.70
2022-10-23T19:20:24.847Z,5.70
2022-10-23T19:22:55.061Z,8.18
2022-10-23T19:25:27.870Z,8.78
2022-10-23T19:30:26.969Z,5.62
2022-10-23T19:32:56.819Z,7.80
2022-10-23T19:35:26.329Z,7.28
2022-10-23T19:37:55.807Z,4.87
2022-10-23T19:40:25.346Z,5.15
2022-10-23T19:42:54.863Z,5.55
2022-10-23T19:45:24.621Z,4.53
2022-10-23T19:47:54.062Z,5.47
2022-10-23T19:50:23.708Z,3.95
2022-10-23T19:52:53.069Z,6.67
2022-10-23T19:55:22.756Z,4.95
2022-10-23T19:57:52.217Z,5.08
2022-10-23T20:00:21.799Z,5.12
2022-10-23T20:02:54.402Z,6.00
2022-10-23T20:05:22.597Z,2.72
2022-10-23T20:07:52.141Z,3.45
2022-10-23T20:10:21.619Z,5.75
2022-10-23T20:12:56.825Z,3.00
2022-10-23T20:15:22.438Z,2.65
2022-10-23T20:17:51.721Z,3.27
2022-10-23T20:20:21.043Z,2.22
2022-10-23T20:22:54.612Z,5.05
2022-10-23T20:25:21.519Z,3.47
2022-10-23T20:27:50.899Z,4.70
2022-10-23T20:30:20.467Z,5.37
2022-10-23T20:32:49.701Z,2.85
2022-10-23T20:35:19.044Z,3.62
2022-10-23T20:37:48.632Z,2.47
2022-10-23T20:40:18.081Z,3.83
2022-10-23T20:42:47.451Z,5.60
2022-10-23T20:45:16.865Z,6.47
2022-10-23T20:47:48.064Z,6.05
2022-10-23T20:50:19.345Z,2.90
2022-10-23T20:52:48.611Z,5.42
2022-10-23T20:55:18.448Z,5.37
2022-10-23T20:57:48.054Z,5.78
2022-10-23T21:00:17.652Z,4.10
2022-10-23T21:02:48.629Z,6.10
2022-10-23T21:05:18.303Z,7.83
2022-10-23T21:07:47.524Z,4.92
2022-10-23T21:10:16.852Z,7.10
2022-10-23T21:12:46.453Z,6.05
2022-10-23T21:15:16.206Z,5.28
2022-10-23T21:17:47.137Z,4.72
2022-10-23T21:20:17.451Z,4.67
2022-10-23T21:22:46.933Z,8.20
2022-10-23T21:25:16.409Z,5.33
2022-10-23T21:27:46.626Z,6.35
2022-10-23T21:30:16.292Z,4.78
2022-10-23T21:32:45.812Z,6.40
2022-10-23T21:35:15.092Z,5.17
2022-10-23T21:37:44.788Z,11.93
2022-10-23T21:40:14.473Z,7.25
2022-10-23T21:42:44.175Z,5.47
2022-10-23T21:45:13.523Z,9.75
2022-10-23T21:47:43.511Z,7.58
2022-10-23T21:50:12.974Z,6.95
2022-10-23T21:52:42.810Z,8.20
2022-10-23T21:55:12.408Z,6.83
2022-10-23T21:57:41.713Z,8.43
2022-10-23T22:00:13.007Z,7.22
2022-10-23T22:02:41.791Z,6.67
2022-10-23T22:05:11.264Z,7.78
2022-10-23T22:07:40.892Z,9.33
2022-10-23T22:10:10.614Z,9.33
2022-10-23T22:12:39.840Z,6.97
2022-10-23T22:15:09.878Z,7.35
2022-10-23T22:17:39.236Z,8.65
2022-10-23T22:20:09.510Z,6.67
2022-10-23T22:22:38.802Z,7.33
2022-10-23T22:25:08.928Z,8.93
2022-10-23T22:27:41.491Z,6.62
2022-10-23T22:32:39.789Z,8.65
2022-10-23T22:35:09.635Z,12.23
2022-10-23T22:37:39.059Z,8.25
2022-10-23T22:40:09.163Z,9.75
2022-10-23T22:42:39.018Z,10.50
2022-10-23T22:45:09.387Z,14.68
2022-10-23T22:47:38.601Z,8.68
2022-10-23T22:50:08.732Z,9.95
2022-10-23T22:52:38.045Z,8.68
2022-10-23T22:55:08.616Z,12.45
2022-10-23T22:57:38.000Z,9.45
2022-10-23T23:00:08.176Z,11.25
2022-10-23T23:02:37.832Z,13.48
2022-10-23T23:05:07.389Z,11.48
2022-10-23T23:07:36.736Z,15.60
2022-10-23T23:10:06.597Z,14.30
2022-10-23T23:12:37.467Z,11.12
2022-10-23T23:15:07.345Z,10.15
2022-10-23T23:17:36.667Z,10.25
2022-10-23T23:20:06.548Z,9.15
2022-10-23T23:22:36.043Z,13.13
2022-10-23T23:25:05.598Z,16.95
2022-10-23T23:27:34.911Z,15.60
2022-10-23T23:30:06.372Z,14.28
2022-10-23T23:32:38.107Z,12.90
2022-10-23T23:35:07.909Z,16.23
2022-10-23T23:37:37.463Z,9.83
2022-10-23T23:40:07.807Z,11.40
2022-10-23T23:42:37.066Z,8.73
2022-10-23T23:45:14.595Z,13.45
2022-10-23T23:47:38.439Z,11.75
2022-10-23T23:50:09.248Z,12.78
2022-10-23T23:52:38.729Z,9.38
2022-10-23T23:55:08.543Z,10.23
2022-10-23T23:57:37.767Z,10.03
